Pagina principale
METAR-TAF:

METAR-TAF

Aeroporti :

Grazzanise, Italia

latitudine: 41-03N, longitudine: 014-04E, altezza: 9 m

Osservazione

Il bollettino è stato emesso 37 minuti fa, alle 09:55 UTC
Vento 8 kt da sud/sud-ovest
Temperature 23°C
Umidità 61%
Pressione 1012 hPa
Visibilità 10 km o più
Poco nuvoloso ad un'altezza di 2000 ft
Nubi sparse ad un'altezza di 3000 ft

METAR: LIRM 070955Z 21008KT 9999 FEW020 SCT030 23/15 Q1012 RMK BKN VIS MIN 9999 WIND THR06 20011KT BLU

Ora: 12:32 (10:32 UTC)

Previsione

Il bollettino è stato emesso 2 ore e 32 minuti fa, alle 08:00 UTC
Previsione valida dal 07 alle 09 UTC al 07 alle 18 UTC
Vento 10 kt da sud-ovest
Visibilità 10 km o più
Nubi sparse ad un'altezza di 2000 ft
Temporaneamente
dal 07 alle 12 UTC al 07 alle 17 UTC
Poco nuvoloso ad un'altezza di 2000 ft, Cumulo congesto.

TAF: LIRM 070800Z 0709/0718 22010KT 9999 SCT020 TEMPO 0712/0717 FEW020TCU

Osservazioni e previsioni meteorologiche di più di 4000 aeroporti (messaggi METAR e TAF).

Le stazioni disponibili sono rappresentate dai dischi gialli e rossi sulla carta.

Puntare il mouse per vedere il nome della stazione.

Clicca sopra per visualizzare le osservazioni e previsioni meteorologiche.

Per cambiare la mappa : fare clic sui pulsanti verdi con una croce nera per ingrandire, il pulsante verde con un trattino per diminuire, o sulla freccia verde per le mappe adiacenti.


METAR-TAF: